Time;durP1;ratioP1;P1;durP2;ratioP2;P2;SDS_P1;SDS_P2;PMS_P1;PMS_P2;Temp;Humidity;BMP_temperature;BMP_pressure;BME280_temperature;BME280_humidity;BME280_pressure;Samples;Min_cycle;Max_cycle;Signal;HPM_P1;HPM_P2
2022/01/24 00:01:04;;;;;;;;;;;24.00;49.40;;;;;;1622868;72;800;-73
2022/01/24 00:03:06;;;;;;;;;;;24.10;49.50;;;;;;1615087;72;725;-73
2022/01/24 00:05:08;;;;;;;;;;;24.10;49.50;;;;;;1615385;72;1933;-73
2022/01/24 00:07:10;;;;;;;;;;;24.10;49.50;;;;;;1623012;72;733;-73
2022/01/24 00:09:13;;;;;;;;;;;24.00;49.30;;;;;;1614274;72;703;-74
2022/01/24 00:11:18;;;;;;;;;;;24.10;49.50;;;;;;1616392;72;724;-73
2022/01/24 00:15:57;;;;;;;;;;;24.00;49.40;;;;;;1581458;72;1633;-73
2022/01/24 00:18:09;;;;;;;;;;;24.00;49.40;;;;;;1591431;72;1150;-72
2022/01/24 00:27:06;;;;;;;;;;;24.00;49.40;;;;;;1595675;72;1632;-72
2022/01/24 00:29:08;;;;;;;;;;;24.00;49.50;;;;;;1616780;72;750;-72
2022/01/24 00:31:09;;;;;;;;;;;24.00;49.60;;;;;;1618319;72;785;-71
2022/01/24 00:33:11;;;;;;;;;;;24.00;49.50;;;;;;1632210;72;731;-72
2022/01/24 00:35:13;;;;;;;;;;;24.00;49.60;;;;;;1613624;72;1118;-72
2022/01/24 00:37:15;;;;;;;;;;;24.00;49.50;;;;;;1622252;72;699;-72
2022/01/24 00:39:17;;;;;;;;;;;24.00;49.60;;;;;;1618408;72;700;-72
2022/01/24 00:41:20;;;;;;;;;;;24.00;49.60;;;;;;1587143;72;651;-71
2022/01/24 00:43:41;;;;;;;;;;;24.00;49.50;;;;;;1620443;72;749;-72
2022/01/24 00:45:35;;;;;;;;;;;24.00;49.60;;;;;;1603336;72;1912;-72
2022/01/24 00:54:48;;;;;;;;;;;24.00;49.60;;;;;;1615593;72;1639;-73
2022/01/24 00:56:48;;;;;;;;;;;24.00;49.60;;;;;;1602864;72;1187;-73
2022/01/24 00:58:50;;;;;;;;;;;24.00;49.70;;;;;;1618430;73;730;-73
2022/01/24 01:00:52;;;;;;;;;;;24.00;49.70;;;;;;1593839;72;712;-74
2022/01/24 01:02:54;;;;;;;;;;;24.00;49.60;;;;;;1610027;72;697;-72
2022/01/24 01:05:17;;;;;;;;;;;24.10;49.70;;;;;;1618649;72;1917;-72
2022/01/24 01:07:09;;;;;;;;;;;24.00;49.60;;;;;;1596499;72;1138;-73
2022/01/24 01:18:30;;;;;;;;;;;24.00;49.50;;;;;;1625121;72;1624;-71
2022/01/24 01:20:42;;;;;;;;;;;24.10;49.70;;;;;;1594400;72;773;-71
2022/01/24 01:22:35;;;;;;;;;;;24.00;49.60;;;;;;1613664;72;1554;-71
2022/01/24 01:24:43;;;;;;;;;;;24.00;49.60;;;;;;1624673;72;1938;-71
2022/01/24 01:26:51;;;;;;;;;;;24.00;49.60;;;;;;1619544;72;1566;-70
2022/01/24 01:28:47;;;;;;;;;;;24.00;49.60;;;;;;1585774;72;1133;-71
2022/01/24 01:30:51;;;;;;;;;;;24.00;49.70;;;;;;1610110;72;1149;-71
2022/01/24 01:33:02;;;;;;;;;;;24.00;49.70;;;;;;1610769;72;1577;-71
2022/01/24 01:37:46;;;;;;;;;;;24.00;49.60;;;;;;1620034;72;750;-73
2022/01/24 01:55:41;;;;;;;;;;;24.00;49.80;;;;;;1599002;72;1132;-72
2022/01/24 01:57:43;;;;;;;;;;;24.00;49.70;;;;;;1608250;72;780;-73
2022/01/24 01:59:45;;;;;;;;;;;24.00;49.80;;;;;;1624543;72;787;-72
2022/01/24 02:01:47;;;;;;;;;;;23.90;49.70;;;;;;1613686;72;726;-73
2022/01/24 02:03:50;;;;;;;;;;;24.00;49.70;;;;;;1623039;72;783;-73
2022/01/24 02:05:52;;;;;;;;;;;24.00;49.70;;;;;;1621367;72;1906;-72
2022/01/24 02:07:54;;;;;;;;;;;23.90;49.70;;;;;;1619433;72;584;-72
2022/01/24 02:09:56;;;;;;;;;;;24.00;49.80;;;;;;1631722;72;771;-72
2022/01/24 02:11:58;;;;;;;;;;;24.00;49.80;;;;;;1598588;72;792;-71
2022/01/24 02:14:05;;;;;;;;;;;24.00;49.80;;;;;;1618341;72;767;-71
2022/01/24 02:16:34;;;;;;;;;;;23.90;49.80;;;;;;1619241;72;1107;-71
2022/01/24 02:23:01;;;;;;;;;;;24.00;49.80;;;;;;1591420;72;853;-72
2022/01/24 02:24:57;;;;;;;;;;;23.90;49.70;;;;;;1609301;72;1912;-72
2022/01/24 02:26:58;;;;;;;;;;;23.90;49.70;;;;;;1618553;72;1192;-72
2022/01/24 02:29:27;;;;;;;;;;;24.00;49.70;;;;;;1607675;72;710;-71
2022/01/24 02:31:36;;;;;;;;;;;24.00;49.70;;;;;;1592507;72;1160;-71
2022/01/24 02:33:21;;;;;;;;;;;23.90;49.70;;;;;;1622767;72;1673;-71
2022/01/24 02:35:23;;;;;;;;;;;23.90;49.70;;;;;;1610667;72;1174;-71
2022/01/24 02:37:25;;;;;;;;;;;23.90;49.70;;;;;;1597964;72;770;-71
2022/01/24 02:39:45;;;;;;;;;;;23.90;49.80;;;;;;1620622;72;733;-71
2022/01/24 02:48:33;;;;;;;;;;;23.90;49.90;;;;;;1587080;73;1671;-71
2022/01/24 02:51:10;;;;;;;;;;;23.90;49.90;;;;;;1626883;72;700;-71
2022/01/24 02:52:54;;;;;;;;;;;24.00;49.90;;;;;;1606187;72;1104;-72
2022/01/24 02:54:56;;;;;;;;;;;24.00;49.90;;;;;;1613940;72;755;-71
2022/01/24 02:56:58;;;;;;;;;;;24.00;50.00;;;;;;1627596;72;1095;-71
2022/01/24 02:58:59;;;;;;;;;;;24.00;49.90;;;;;;1619252;72;803;-71
2022/01/24 03:01:06;;;;;;;;;;;24.00;49.90;;;;;;1595590;73;761;-72
2022/01/24 03:03:05;;;;;;;;;;;24.00;49.90;;;;;;1618166;72;1092;-72
2022/01/24 03:05:07;;;;;;;;;;;23.90;50.00;;;;;;1620841;71;1936;-71
2022/01/24 03:07:09;;;;;;;;;;;24.00;50.00;;;;;;1626191;72;629;-72
2022/01/24 03:09:11;;;;;;;;;;;23.90;50.00;;;;;;1621492;72;711;-72
2022/01/24 03:11:13;;;;;;;;;;;23.90;50.00;;;;;;1603406;72;740;-72
2022/01/24 03:15:28;;;;;;;;;;;23.90;49.90;;;;;;1607853;72;1106;-72
2022/01/24 03:17:30;;;;;;;;;;;23.90;50.00;;;;;;1607513;72;697;-73
2022/01/24 03:19:32;;;;;;;;;;;24.00;50.00;;;;;;1620517;72;687;-72
2022/01/24 03:21:34;;;;;;;;;;;24.00;50.00;;;;;;1598749;72;697;-72
2022/01/24 03:23:36;;;;;;;;;;;23.90;50.00;;;;;;1611936;72;792;-73
2022/01/24 03:25:38;;;;;;;;;;;23.90;50.00;;;;;;1631590;72;1913;-72
2022/01/24 03:27:40;;;;;;;;;;;23.90;50.00;;;;;;1618137;72;710;-73
2022/01/24 03:29:41;;;;;;;;;;;24.00;50.00;;;;;;1602288;72;721;-73
2022/01/24 03:31:45;;;;;;;;;;;23.90;49.90;;;;;;1610273;73;765;-73
2022/01/24 03:33:47;;;;;;;;;;;23.90;49.90;;;;;;1600786;72;588;-72
2022/01/24 03:35:49;;;;;;;;;;;24.00;49.90;;;;;;1605482;72;1133;-72
2022/01/24 03:37:50;;;;;;;;;;;24.00;49.90;;;;;;1587692;72;754;-73
2022/01/24 03:39:52;;;;;;;;;;;24.00;49.90;;;;;;1614065;72;780;-72
2022/01/24 03:41:54;;;;;;;;;;;24.00;49.90;;;;;;1619064;72;783;-72
2022/01/24 03:44:04;;;;;;;;;;;24.00;49.90;;;;;;1611124;72;699;-72
2022/01/24 03:46:12;;;;;;;;;;;24.00;49.90;;;;;;1613167;72;1914;-72
2022/01/24 03:48:26;;;;;;;;;;;24.00;49.80;;;;;;1613515;72;1115;-72
2022/01/24 03:50:17;;;;;;;;;;;24.10;50.00;;;;;;1619674;72;1067;-72
2022/01/24 03:52:19;;;;;;;;;;;24.10;50.00;;;;;;1611213;72;709;-72
2022/01/24 03:54:21;;;;;;;;;;;24.20;50.00;;;;;;1622800;72;783;-72
2022/01/24 03:56:23;;;;;;;;;;;24.10;49.90;;;;;;1623618;72;1111;-72
2022/01/24 03:58:25;;;;;;;;;;;24.20;49.90;;;;;;1627594;72;715;-72
2022/01/24 04:00:26;;;;;;;;;;;24.10;49.80;;;;;;1585793;72;780;-72
2022/01/24 04:02:28;;;;;;;;;;;24.20;49.80;;;;;;1620481;72;735;-73
2022/01/24 04:04:30;;;;;;;;;;;24.20;49.80;;;;;;1612250;72;706;-73
2022/01/24 04:06:32;;;;;;;;;;;24.30;49.90;;;;;;1604782;72;1953;-72
2022/01/24 04:08:34;;;;;;;;;;;24.30;49.90;;;;;;1619738;72;719;-72
2022/01/24 04:10:44;;;;;;;;;;;24.20;49.70;;;;;;1614225;72;731;-72
2022/01/24 04:12:45;;;;;;;;;;;24.20;49.70;;;;;;1606932;72;1157;-71
2022/01/24 04:17:07;;;;;;;;;;;24.30;49.70;;;;;;1621618;72;1097;-71
2022/01/24 04:19:07;;;;;;;;;;;24.30;49.70;;;;;;1607893;72;1102;-72
2022/01/24 04:23:20;;;;;;;;;;;24.30;49.70;;;;;;1591818;72;744;-72
2022/01/24 04:25:24;;;;;;;;;;;24.30;49.60;;;;;;1615850;72;1922;-71
2022/01/24 04:27:25;;;;;;;;;;;24.30;49.60;;;;;;1608017;72;2060;-72
2022/01/24 04:29:27;;;;;;;;;;;24.30;49.50;;;;;;1586496;72;652;-72
2022/01/24 04:31:29;;;;;;;;;;;24.30;49.50;;;;;;1600388;72;1084;-71
2022/01/24 04:33:31;;;;;;;;;;;24.30;49.50;;;;;;1593875;73;646;-72
2022/01/24 04:35:33;;;;;;;;;;;24.40;49.40;;;;;;1600033;72;1128;-72
2022/01/24 04:37:34;;;;;;;;;;;24.30;49.40;;;;;;1601986;72;760;-73
2022/01/24 04:39:36;;;;;;;;;;;24.30;49.40;;;;;;1598741;72;778;-71
2022/01/24 04:41:42;;;;;;;;;;;24.30;49.40;;;;;;1605114;72;755;-72
2022/01/24 04:54:43;;;;;;;;;;;24.30;49.30;;;;;;1614948;72;872;-72
2022/01/24 04:56:45;;;;;;;;;;;24.30;49.30;;;;;;1615675;72;1138;-71
2022/01/24 04:58:47;;;;;;;;;;;24.30;49.20;;;;;;1621009;72;770;-71
2022/01/24 05:00:49;;;;;;;;;;;24.30;49.20;;;;;;1624446;72;716;-72
2022/01/24 05:02:50;;;;;;;;;;;24.40;49.20;;;;;;1605792;72;713;-73
2022/01/24 05:04:53;;;;;;;;;;;24.30;49.20;;;;;;1610594;72;847;-71
2022/01/24 05:06:54;;;;;;;;;;;24.50;49.20;;;;;;1620727;72;1936;-71
2022/01/24 05:08:56;;;;;;;;;;;24.30;49.20;;;;;;1619754;72;755;-72
2022/01/24 05:11:08;;;;;;;;;;;24.40;49.20;;;;;;1618213;72;753;-74
2022/01/24 05:24:46;;;;;;;;;;;24.30;49.10;;;;;;1590494;72;1615;-72
2022/01/24 05:26:48;;;;;;;;;;;24.30;49.10;;;;;;1608887;72;1939;-72
2022/01/24 05:28:50;;;;;;;;;;;24.40;49.10;;;;;;1614988;72;752;-72
2022/01/24 05:30:52;;;;;;;;;;;24.30;49.10;;;;;;1609176;72;725;-74
2022/01/24 05:32:54;;;;;;;;;;;24.30;49.10;;;;;;1621704;72;719;-72
2022/01/24 05:34:56;;;;;;;;;;;24.30;49.10;;;;;;1608411;72;700;-72
2022/01/24 05:36:58;;;;;;;;;;;24.30;49.10;;;;;;1622587;72;1098;-73
2022/01/24 05:39:00;;;;;;;;;;;24.30;49.00;;;;;;1624016;72;763;-74
2022/01/24 05:41:03;;;;;;;;;;;24.30;49.00;;;;;;1612121;72;788;-73
2022/01/24 05:43:06;;;;;;;;;;;24.30;49.00;;;;;;1617315;72;701;-71
2022/01/24 05:45:08;;;;;;;;;;;24.40;49.00;;;;;;1607649;72;1498;-73
2022/01/24 05:47:10;;;;;;;;;;;24.30;49.00;;;;;;1615414;72;1942;-73
2022/01/24 05:49:12;;;;;;;;;;;24.30;48.90;;;;;;1611879;72;812;-71
2022/01/24 05:51:14;;;;;;;;;;;24.30;48.90;;;;;;1615982;73;643;-73
2022/01/24 05:53:16;;;;;;;;;;;24.40;48.90;;;;;;1620971;72;718;-72
2022/01/24 05:55:18;;;;;;;;;;;24.30;48.90;;;;;;1614145;72;1126;-71
2022/01/24 05:57:19;;;;;;;;;;;24.30;48.90;;;;;;1600700;72;728;-72
2022/01/24 05:59:21;;;;;;;;;;;24.30;48.90;;;;;;1611433;72;771;-69
2022/01/24 06:01:23;;;;;;;;;;;24.30;48.90;;;;;;1624767;72;755;-72
2022/01/24 06:03:27;;;;;;;;;;;24.40;48.90;;;;;;1626168;72;695;-72
2022/01/24 06:05:29;;;;;;;;;;;24.40;48.90;;;;;;1621024;72;1080;-73
2022/01/24 06:07:31;;;;;;;;;;;24.40;48.90;;;;;;1619233;72;1939;-73
2022/01/24 06:09:33;;;;;;;;;;;24.50;48.90;;;;;;1617455;72;744;-72
2022/01/24 06:11:34;;;;;;;;;;;24.50;48.90;;;;;;1617262;72;736;-72
2022/01/24 06:13:36;;;;;;;;;;;24.50;48.90;;;;;;1616994;72;754;-72
2022/01/24 06:15:38;;;;;;;;;;;24.50;48.90;;;;;;1611840;71;1185;-72
2022/01/24 06:17:40;;;;;;;;;;;24.50;48.90;;;;;;1598801;72;706;-71
2022/01/24 06:19:42;;;;;;;;;;;24.50;48.90;;;;;;1625071;72;699;-70
2022/01/24 06:21:48;;;;;;;;;;;24.50;48.90;;;;;;1613516;72;787;-73
2022/01/24 06:23:47;;;;;;;;;;;24.50;48.80;;;;;;1616468;72;828;-73
2022/01/24 06:25:49;;;;;;;;;;;24.50;48.70;;;;;;1628279;72;1159;-73
2022/01/24 06:27:52;;;;;;;;;;;24.50;48.70;;;;;;1619823;72;1963;-71
2022/01/24 06:29:53;;;;;;;;;;;24.50;48.70;;;;;;1624940;72;724;-73
2022/01/24 06:31:55;;;;;;;;;;;24.50;48.70;;;;;;1604034;72;718;-74
2022/01/24 06:33:57;;;;;;;;;;;24.40;48.60;;;;;;1584957;72;747;-75
2022/01/24 06:35:59;;;;;;;;;;;24.50;48.70;;;;;;1603528;72;1181;-73
2022/01/24 06:38:01;;;;;;;;;;;24.50;48.80;;;;;;1600423;72;668;-71
2022/01/24 06:40:03;;;;;;;;;;;24.50;48.80;;;;;;1596640;72;758;-75
2022/01/24 06:42:21;;;;;;;;;;;24.40;48.90;;;;;;1628445;72;668;-70
2022/01/24 06:44:09;;;;;;;;;;;24.40;48.90;;;;;;1613073;72;1096;-72
2022/01/24 06:46:11;;;;;;;;;;;24.50;48.90;;;;;;1592166;72;1932;-73
2022/01/24 06:48:13;;;;;;;;;;;24.50;48.90;;;;;;1619361;72;749;-72
2022/01/24 06:50:15;;;;;;;;;;;24.40;48.80;;;;;;1630540;72;721;-70
2022/01/24 06:52:17;;;;;;;;;;;24.50;48.70;;;;;;1622317;72;774;-71
2022/01/24 06:54:19;;;;;;;;;;;24.40;48.10;;;;;;1600385;72;765;-71
2022/01/24 06:56:20;;;;;;;;;;;24.40;48.20;;;;;;1621531;72;1210;-70
2022/01/24 06:58:24;;;;;;;;;;;24.30;48.30;;;;;;1615438;72;704;-71
2022/01/24 07:00:26;;;;;;;;;;;24.30;48.30;;;;;;1605078;72;731;-74
2022/01/24 07:02:28;;;;;;;;;;;24.30;48.30;;;;;;1611988;72;721;-73
2022/01/24 07:04:30;;;;;;;;;;;24.40;48.20;;;;;;1612422;72;762;-72
2022/01/24 07:06:32;;;;;;;;;;;24.30;48.20;;;;;;1616750;72;1922;-72
2022/01/24 07:08:34;;;;;;;;;;;24.30;48.20;;;;;;1621248;72;714;-71
2022/01/24 07:10:35;;;;;;;;;;;24.30;48.20;;;;;;1613482;73;688;-72
2022/01/24 07:12:37;;;;;;;;;;;24.30;48.10;;;;;;1618727;72;733;-72
2022/01/24 07:14:41;;;;;;;;;;;24.30;48.10;;;;;;1600384;72;735;-71
2022/01/24 07:17:06;;;;;;;;;;;24.30;48.20;;;;;;1601080;72;1121;-71
2022/01/24 07:18:58;;;;;;;;;;;24.20;47.60;;;;;;1602232;72;1029;-72
2022/01/24 07:21:01;;;;;;;;;;;24.30;47.40;;;;;;1591994;72;758;-71
2022/01/24 07:23:03;;;;;;;;;;;24.20;46.70;;;;;;1600370;72;784;-70
2022/01/24 07:25:05;;;;;;;;;;;24.10;46.20;;;;;;1596360;72;714;-70
2022/01/24 07:27:07;;;;;;;;;;;24.10;45.70;;;;;;1593351;73;1929;-70
2022/01/24 07:29:09;;;;;;;;;;;24.00;45.20;;;;;;1603657;72;713;-71
2022/01/24 07:31:11;;;;;;;;;;;24.00;44.80;;;;;;1614546;72;747;-72
2022/01/24 07:33:14;;;;;;;;;;;23.90;44.40;;;;;;1594536;73;738;-73
2022/01/24 07:35:16;;;;;;;;;;;23.90;44.20;;;;;;1596601;72;1167;-72
2022/01/24 07:37:18;;;;;;;;;;;23.80;43.90;;;;;;1603816;72;734;-71
2022/01/24 07:39:19;;;;;;;;;;;23.80;43.80;;;;;;1597079;72;761;-71
2022/01/24 07:41:28;;;;;;;;;;;23.70;43.60;;;;;;1600339;72;730;-69
2022/01/24 07:43:25;;;;;;;;;;;23.70;43.40;;;;;;1596566;73;1122;-70
2022/01/24 07:45:27;;;;;;;;;;;23.60;43.10;;;;;;1604382;72;1129;-73
2022/01/24 07:47:29;;;;;;;;;;;23.70;43.10;;;;;;1612815;72;1909;-73
2022/01/24 07:49:31;;;;;;;;;;;23.60;42.80;;;;;;1627437;72;753;-72
2022/01/24 07:51:34;;;;;;;;;;;23.60;42.60;;;;;;1613747;72;785;-72
2022/01/24 07:53:36;;;;;;;;;;;23.60;42.40;;;;;;1625464;72;711;-71
2022/01/24 07:55:38;;;;;;;;;;;23.50;42.30;;;;;;1619065;72;1158;-73
2022/01/24 07:57:39;;;;;;;;;;;23.50;42.40;;;;;;1619960;72;640;-70
2022/01/24 07:59:41;;;;;;;;;;;23.50;42.80;;;;;;1620716;72;800;-70
2022/01/24 08:01:43;;;;;;;;;;;23.60;43.30;;;;;;1608072;72;716;-71
2022/01/24 08:03:46;;;;;;;;;;;23.50;43.70;;;;;;1613383;72;820;-73
2022/01/24 08:05:48;;;;;;;;;;;23.60;43.90;;;;;;1617949;72;1135;-72
2022/01/24 08:07:50;;;;;;;;;;;23.60;44.10;;;;;;1594228;72;1926;-73
2022/01/24 08:09:52;;;;;;;;;;;23.60;44.20;;;;;;1612798;72;729;-73
2022/01/24 08:11:54;;;;;;;;;;;23.70;44.50;;;;;;1610216;72;683;-72
2022/01/24 08:13:56;;;;;;;;;;;23.70;44.60;;;;;;1586147;73;995;-74
2022/01/24 08:15:58;;;;;;;;;;;23.70;44.70;;;;;;1606433;71;3071;-73
2022/01/24 08:18:00;;;;;;;;;;;23.70;44.90;;;;;;1622068;72;698;-71
2022/01/24 08:20:02;;;;;;;;;;;23.80;45.00;;;;;;1619257;72;911;-69
2022/01/24 08:22:04;;;;;;;;;;;23.80;45.00;;;;;;1614857;72;770;-73
2022/01/24 08:24:07;;;;;;;;;;;23.80;45.10;;;;;;1627404;72;721;-72
2022/01/24 08:26:09;;;;;;;;;;;23.90;45.20;;;;;;1611851;72;1217;-76
2022/01/24 08:28:11;;;;;;;;;;;23.90;45.20;;;;;;1622583;72;1943;-73
2022/01/24 08:30:13;;;;;;;;;;;23.90;45.30;;;;;;1632272;72;776;-73
2022/01/24 08:32:16;;;;;;;;;;;23.90;45.40;;;;;;1631395;72;809;-76
2022/01/24 08:34:18;;;;;;;;;;;24.00;45.40;;;;;;1627760;72;741;-74
2022/01/24 08:36:20;;;;;;;;;;;24.00;45.50;;;;;;1629022;72;1137;-75
2022/01/24 08:38:22;;;;;;;;;;;24.00;45.40;;;;;;1626344;72;770;-72
2022/01/24 08:40:26;;;;;;;;;;;24.00;45.50;;;;;;1627745;72;775;-71
2022/01/24 08:42:40;;;;;;;;;;;24.10;45.50;;;;;;1630919;72;1666;-75
2022/01/24 08:46:43;;;;;;;;;;;24.00;45.50;;;;;;1615470;72;1185;-75
2022/01/24 08:48:46;;;;;;;;;;;24.00;45.50;;;;;;1635650;72;1891;-72
2022/01/24 08:50:49;;;;;;;;;;;24.00;45.50;;;;;;1628980;72;745;-71
2022/01/24 08:52:51;;;;;;;;;;;24.00;45.60;;;;;;1623690;72;787;-72
2022/01/24 08:54:53;;;;;;;;;;;24.00;45.70;;;;;;1625611;72;767;-72
2022/01/24 08:56:55;;;;;;;;;;;24.00;45.70;;;;;;1638900;71;1119;-72
2022/01/24 08:58:57;;;;;;;;;;;24.10;45.90;;;;;;1633599;72;729;-75
2022/01/24 09:00:59;;;;;;;;;;;24.00;45.80;;;;;;1624803;72;707;-71
2022/01/24 09:03:01;;;;;;;;;;;24.10;46.00;;;;;;1633124;72;726;-72
2022/01/24 09:05:03;;;;;;;;;;;24.10;46.00;;;;;;1633411;72;703;-73
2022/01/24 09:07:05;;;;;;;;;;;24.00;45.90;;;;;;1631465;71;1939;-72
2022/01/24 09:09:07;;;;;;;;;;;24.10;46.00;;;;;;1628457;72;807;-73
2022/01/24 09:11:09;;;;;;;;;;;24.00;45.90;;;;;;1625943;72;776;-70
2022/01/24 09:13:11;;;;;;;;;;;24.10;46.10;;;;;;1628427;72;663;-72
2022/01/24 09:15:14;;;;;;;;;;;24.00;45.90;;;;;;1634794;72;714;-73
2022/01/24 09:17:16;;;;;;;;;;;24.10;46.10;;;;;;1630076;71;1124;-74
2022/01/24 09:19:18;;;;;;;;;;;24.00;46.00;;;;;;1629409;72;759;-69
2022/01/24 09:21:20;;;;;;;;;;;24.10;46.10;;;;;;1635794;72;821;-72
2022/01/24 09:23:22;;;;;;;;;;;24.00;46.00;;;;;;1620568;72;710;-71
2022/01/24 09:25:24;;;;;;;;;;;24.00;46.00;;;;;;1630289;72;784;-72
2022/01/24 09:27:26;;;;;;;;;;;24.00;46.10;;;;;;1632477;72;1951;-72
2022/01/24 09:29:28;;;;;;;;;;;24.00;46.00;;;;;;1631285;72;699;-72
2022/01/24 09:31:30;;;;;;;;;;;24.00;46.10;;;;;;1631618;72;691;-71
2022/01/24 09:33:32;;;;;;;;;;;24.00;46.10;;;;;;1632822;72;796;-71
2022/01/24 09:35:34;;;;;;;;;;;24.00;46.10;;;;;;1629283;72;654;-76
2022/01/24 09:37:36;;;;;;;;;;;24.00;46.20;;;;;;1628442;72;1067;-74
2022/01/24 09:39:37;;;;;;;;;;;24.00;46.20;;;;;;1628797;72;797;-71
2022/01/24 09:41:39;;;;;;;;;;;24.00;46.30;;;;;;1628761;72;747;-77
2022/01/24 09:43:43;;;;;;;;;;;24.00;46.30;;;;;;1623054;72;781;-71
2022/01/24 09:45:45;;;;;;;;;;;23.90;46.30;;;;;;1628860;72;1145;-72
2022/01/24 09:47:47;;;;;;;;;;;23.90;46.30;;;;;;1625233;72;1932;-72
2022/01/24 09:49:49;;;;;;;;;;;23.90;46.40;;;;;;1624209;72;763;-72
2022/01/24 09:51:51;;;;;;;;;;;23.90;46.40;;;;;;1630294;72;661;-72
2022/01/24 09:53:53;;;;;;;;;;;23.90;46.50;;;;;;1633515;72;748;-73
2022/01/24 09:55:55;;;;;;;;;;;23.90;46.50;;;;;;1625237;72;1125;-75
2022/01/24 09:57:57;;;;;;;;;;;23.90;46.50;;;;;;1622783;72;754;-74
2022/01/24 09:59:58;;;;;;;;;;;23.90;46.50;;;;;;1624365;72;776;-73
2022/01/24 10:02:00;;;;;;;;;;;23.90;46.60;;;;;;1627244;72;744;-73
2022/01/24 10:04:07;;;;;;;;;;;23.90;46.60;;;;;;1634432;72;927;-72
2022/01/24 10:06:09;;;;;;;;;;;24.00;46.70;;;;;;1626074;72;1136;-73
2022/01/24 10:08:14;;;;;;;;;;;24.00;46.70;;;;;;1625433;72;1936;-72
2022/01/24 10:10:21;;;;;;;;;;;23.90;46.70;;;;;;1623799;72;734;-74
2022/01/24 10:17:04;;;;;;;;;;;24.00;46.70;;;;;;1617677;72;1634;-73
2022/01/24 10:19:11;;;;;;;;;;;23.90;46.80;;;;;;1625091;72;1624;-76
2022/01/24 10:21:18;;;;;;;;;;;23.90;46.80;;;;;;1630303;72;762;-74
2022/01/24 10:23:27;;;;;;;;;;;23.90;46.80;;;;;;1625199;72;744;-76
2022/01/24 10:25:29;;;;;;;;;;;23.90;46.80;;;;;;1623399;72;757;-77
2022/01/24 10:27:30;;;;;;;;;;;23.80;46.80;;;;;;1623091;72;1948;-78
2022/01/24 10:29:32;;;;;;;;;;;23.90;46.80;;;;;;1622886;72;742;-68
2022/01/24 10:31:34;;;;;;;;;;;23.80;46.70;;;;;;1623792;72;746;-72
2022/01/24 10:33:41;;;;;;;;;;;23.80;46.70;;;;;;1625910;72;662;-72
2022/01/24 10:35:47;;;;;;;;;;;23.80;46.70;;;;;;1609811;72;1577;-71
2022/01/24 10:37:51;;;;;;;;;;;23.90;46.80;;;;;;1625780;72;775;-72
2022/01/24 10:39:58;;;;;;;;;;;23.90;46.80;;;;;;1630137;72;1676;-72
2022/01/24 10:44:33;;;;;;;;;;;23.90;46.80;;;;;;1631398;72;808;-73
2022/01/24 10:46:35;;;;;;;;;;;23.80;46.70;;;;;;1632813;71;1136;-73
2022/01/24 10:48:42;;;;;;;;;;;23.90;46.80;;;;;;1629342;72;1929;-72
2022/01/24 10:50:41;;;;;;;;;;;23.90;46.80;;;;;;1633294;72;1545;-72
2022/01/24 10:52:43;;;;;;;;;;;23.80;46.60;;;;;;1623813;72;734;-72
2022/01/24 10:54:48;;;;;;;;;;;23.90;46.80;;;;;;1628080;71;682;-71
2022/01/24 10:56:50;;;;;;;;;;;23.90;46.70;;;;;;1624245;72;1166;-71
2022/01/24 10:58:52;;;;;;;;;;;23.90;46.70;;;;;;1591882;73;1208;-72
2022/01/24 11:00:54;;;;;;;;;;;23.90;46.60;;;;;;1624385;72;715;-74
2022/01/24 11:02:57;;;;;;;;;;;24.00;46.60;;;;;;1623982;72;757;-72
2022/01/24 11:05:01;;;;;;;;;;;24.00;46.60;;;;;;1634203;72;699;-75
2022/01/24 11:07:03;;;;;;;;;;;23.90;46.60;;;;;;1621635;72;1151;-73
2022/01/24 11:09:16;;;;;;;;;;;23.90;46.60;;;;;;1629390;72;1920;-76
2022/01/24 11:11:17;;;;;;;;;;;23.90;46.60;;;;;;1627532;72;720;-73
2022/01/24 11:13:20;;;;;;;;;;;24.00;46.70;;;;;;1628950;72;783;-75
2022/01/24 11:15:23;;;;;;;;;;;23.80;46.70;;;;;;1630396;72;718;-71
2022/01/24 11:17:30;;;;;;;;;;;23.90;46.70;;;;;;1630678;72;1113;-71
2022/01/24 11:19:32;;;;;;;;;;;23.90;46.80;;;;;;1625849;72;1618;-74
2022/01/24 11:21:33;;;;;;;;;;;23.90;46.70;;;;;;1623990;72;1092;-73
2022/01/24 11:23:39;;;;;;;;;;;23.90;46.80;;;;;;1623010;72;728;-73
2022/01/24 11:25:39;;;;;;;;;;;23.90;46.80;;;;;;1627100;72;1595;-73
2022/01/24 11:27:43;;;;;;;;;;;23.90;46.80;;;;;;1624326;72;756;-73
2022/01/24 11:29:45;;;;;;;;;;;23.90;46.90;;;;;;1630791;72;1987;-79
2022/01/24 11:31:51;;;;;;;;;;;23.80;46.70;;;;;;1624566;72;732;-72
2022/01/24 11:33:57;;;;;;;;;;;23.80;46.80;;;;;;1626556;72;1056;-76
2022/01/24 11:36:02;;;;;;;;;;;23.80;46.70;;;;;;1597648;72;1133;-74
2022/01/24 11:38:04;;;;;;;;;;;23.80;46.80;;;;;;1626787;72;704;-73
2022/01/24 11:40:07;;;;;;;;;;;23.80;46.70;;;;;;1627602;72;851;-72
2022/01/24 11:42:09;;;;;;;;;;;23.80;46.80;;;;;;1632610;72;711;-76
2022/01/24 11:44:15;;;;;;;;;;;23.80;46.80;;;;;;1622171;72;745;-73
2022/01/24 11:46:35;;;;;;;;;;;23.70;46.80;;;;;;1626215;72;1192;-73
2022/01/24 11:48:37;;;;;;;;;;;23.70;46.80;;;;;;1624390;72;1908;-73
2022/01/24 11:50:39;;;;;;;;;;;23.70;46.80;;;;;;1624480;72;663;-73
2022/01/24 11:52:41;;;;;;;;;;;23.70;46.80;;;;;;1625054;72;721;-73
2022/01/24 11:56:48;;;;;;;;;;;23.70;46.80;;;;;;1619913;72;1070;-73
2022/01/24 11:58:50;;;;;;;;;;;23.70;46.80;;;;;;1623440;72;718;-73
2022/01/24 12:00:54;;;;;;;;;;;23.70;46.80;;;;;;1625972;72;721;-71
2022/01/24 12:02:56;;;;;;;;;;;23.70;46.80;;;;;;1626883;72;1153;-73
2022/01/24 12:04:58;;;;;;;;;;;23.60;46.70;;;;;;1631023;72;729;-73
2022/01/24 12:07:16;;;;;;;;;;;23.70;46.90;;;;;;1627494;72;1148;-73
2022/01/24 12:09:20;;;;;;;;;;;23.60;46.80;;;;;;1625748;72;1903;-72
2022/01/24 12:11:24;;;;;;;;;;;23.70;46.90;;;;;;1624373;72;1086;-72
2022/01/24 12:13:28;;;;;;;;;;;23.60;46.70;;;;;;1594428;73;1134;-74
2022/01/24 12:15:39;;;;;;;;;;;23.60;46.70;;;;;;1631044;72;1136;-73
2022/01/24 12:17:45;;;;;;;;;;;23.60;46.70;;;;;;1622246;72;777;-75
2022/01/24 12:19:47;;;;;;;;;;;23.60;46.70;;;;;;1630773;72;767;-76
2022/01/24 12:21:51;;;;;;;;;;;23.60;46.70;;;;;;1622182;72;740;-74
2022/01/24 12:23:54;;;;;;;;;;;23.60;46.70;;;;;;1625364;72;801;-73
2022/01/24 12:26:02;;;;;;;;;;;23.60;46.70;;;;;;1625894;72;1192;-72
2022/01/24 12:28:16;;;;;;;;;;;23.50;46.70;;;;;;1622580;72;1143;-73
2022/01/24 12:30:19;;;;;;;;;;;23.60;46.70;;;;;;1621362;72;1024;-72
2022/01/24 12:32:21;;;;;;;;;;;23.60;46.70;;;;;;1628908;72;680;-71
2022/01/24 12:34:31;;;;;;;;;;;23.60;46.70;;;;;;1625088;72;789;-71
2022/01/24 12:36:47;;;;;;;;;;;23.50;46.70;;;;;;1622332;72;1167;-71
2022/01/24 12:38:50;;;;;;;;;;;23.50;46.70;;;;;;1624453;72;904;-71
2022/01/24 12:41:05;;;;;;;;;;;23.50;46.80;;;;;;1626024;72;786;-70
2022/01/24 12:43:18;;;;;;;;;;;23.50;46.80;;;;;;1571238;72;1125;-71
2022/01/24 12:47:35;;;;;;;;;;;23.50;46.70;;;;;;1638024;72;1625;-74
2022/01/24 12:49:37;;;;;;;;;;;23.50;46.80;;;;;;1635097;72;1923;-71
2022/01/24 12:51:38;;;;;;;;;;;23.50;46.80;;;;;;1630972;72;779;-71
2022/01/24 12:53:40;;;;;;;;;;;23.40;46.80;;;;;;1606244;72;743;-71
2022/01/24 12:55:43;;;;;;;;;;;23.50;46.80;;;;;;1631670;72;1120;-72
2022/01/24 12:57:45;;;;;;;;;;;23.40;46.80;;;;;;1629758;72;763;-71
2022/01/24 12:59:54;;;;;;;;;;;23.50;46.90;;;;;;1624512;72;848;-71
2022/01/24 13:01:58;;;;;;;;;;;23.50;46.90;;;;;;1626342;72;721;-70
2022/01/24 13:04:08;;;;;;;;;;;23.40;46.80;;;;;;1638873;72;1093;-70
2022/01/24 13:06:14;;;;;;;;;;;23.50;47.00;;;;;;1632168;71;1154;-70
2022/01/24 13:08:17;;;;;;;;;;;23.50;47.00;;;;;;1629131;72;793;-71
2022/01/24 13:10:21;;;;;;;;;;;23.40;46.90;;;;;;1631734;72;1880;-72
2022/01/24 13:12:22;;;;;;;;;;;23.40;46.90;;;;;;1627191;72;791;-72
2022/01/24 13:14:33;;;;;;;;;;;23.40;46.90;;;;;;1631765;72;817;-71
2022/01/24 13:21:26;;;;;;;;;;;23.40;47.00;;;;;;1622396;72;1644;-71
2022/01/24 13:23:28;;;;;;;;;;;23.40;47.10;;;;;;1625235;72;821;-71
2022/01/24 13:25:31;;;;;;;;;;;23.40;47.10;;;;;;1630419;72;718;-72
2022/01/24 13:27:36;;;;;;;;;;;23.50;47.20;;;;;;1632649;71;1100;-71
2022/01/24 13:29:39;;;;;;;;;;;23.40;47.10;;;;;;1636204;72;1944;-71
2022/01/24 13:31:41;;;;;;;;;;;23.30;47.10;;;;;;1631510;72;659;-71
2022/01/24 13:33:46;;;;;;;;;;;23.50;47.30;;;;;;1629000;72;741;-72
2022/01/24 13:35:50;;;;;;;;;;;23.50;47.30;;;;;;1630220;72;1679;-72
2022/01/24 13:37:54;;;;;;;;;;;23.40;47.10;;;;;;1639096;72;770;-74
2022/01/24 13:39:56;;;;;;;;;;;23.40;47.10;;;;;;1634468;72;766;-71
2022/01/24 13:41:58;;;;;;;;;;;23.40;47.10;;;;;;1632747;72;799;-72
2022/01/24 13:44:09;;;;;;;;;;;23.40;47.10;;;;;;1630828;72;761;-71
2022/01/24 13:46:08;;;;;;;;;;;23.50;47.30;;;;;;1631786;72;1554;-71
2022/01/24 13:48:19;;;;;;;;;;;23.40;47.10;;;;;;1634480;72;751;-71
2022/01/24 13:50:21;;;;;;;;;;;23.40;47.10;;;;;;1632572;72;1923;-70
2022/01/24 13:52:26;;;;;;;;;;;23.30;47.20;;;;;;1630346;72;728;-71
2022/01/24 13:54:29;;;;;;;;;;;23.40;47.20;;;;;;1630070;72;717;-70
2022/01/24 13:56:34;;;;;;;;;;;23.50;47.30;;;;;;1624909;72;1113;-70
2022/01/24 13:58:36;;;;;;;;;;;23.40;47.20;;;;;;1626050;72;663;-72